sensor_id;sensor_type;location;lat;lon;timestamp;pressure;altitude;pressure_sealevel;temperature;humidity
16194;BME280;8204;53.582;10.080;2023-08-20T00:02:15;100842.09;;;22.13;100.00
16194;BME280;8204;53.582;10.080;2023-08-20T00:04:45;100827.31;;;22.11;100.00
16194;BME280;8204;53.582;10.080;2023-08-20T00:07:11;100831.06;;;22.10;100.00
16194;BME280;8204;53.582;10.080;2023-08-20T00:09:37;100826.16;;;22.07;100.00
16194;BME280;8204;53.582;10.080;2023-08-20T00:12:02;100832.78;;;22.04;100.00
16194;BME280;8204;53.582;10.080;2023-08-20T00:14:59;100827.09;;;22.01;100.00
16194;BME280;8204;53.582;10.080;2023-08-20T00:17:34;100839.28;;;21.97;100.00
16194;BME280;8204;53.582;10.080;2023-08-20T00:20:02;100819.19;;;21.95;100.00
16194;BME280;8204;53.582;10.080;2023-08-20T00:22:30;100829.28;;;21.93;100.00
16194;BME280;8204;53.582;10.080;2023-08-20T00:24:56;100835.91;;;21.90;100.00
16194;BME280;8204;53.582;10.080;2023-08-20T00:27:22;100828.09;;;21.89;100.00
16194;BME280;8204;53.582;10.080;2023-08-20T00:29:47;100828.56;;;21.86;100.00
16194;BME280;8204;53.582;10.080;2023-08-20T00:32:14;100819.97;;;21.84;100.00
16194;BME280;8204;53.582;10.080;2023-08-20T00:34:40;100815.13;;;21.81;100.00
16194;BME280;8204;53.582;10.080;2023-08-20T00:37:05;100833.78;;;21.81;100.00
16194;BME280;8204;53.582;10.080;2023-08-20T00:39:31;100820.91;;;21.78;100.00
16194;BME280;8204;53.582;10.080;2023-08-20T00:41:56;100828.53;;;21.74;100.00
16194;BME280;8204;53.582;10.080;2023-08-20T00:44:22;100817.88;;;21.74;100.00
16194;BME280;8204;53.582;10.080;2023-08-20T00:46:47;100827.16;;;21.72;100.00
16194;BME280;8204;53.582;10.080;2023-08-20T00:49:13;100831.09;;;21.69;100.00
16194;BME280;8204;53.582;10.080;2023-08-20T00:51:39;100819.81;;;21.67;100.00
16194;BME280;8204;53.582;10.080;2023-08-20T00:54:04;100809.63;;;21.64;100.00
16194;BME280;8204;53.582;10.080;2023-08-20T00:56:30;100814.59;;;21.61;100.00
16194;BME280;8204;53.582;10.080;2023-08-20T00:58:56;100820.16;;;21.59;100.00
16194;BME280;8204;53.582;10.080;2023-08-20T01:01:22;100815.84;;;21.58;100.00
16194;BME280;8204;53.582;10.080;2023-08-20T01:03:48;100805.66;;;21.55;100.00
16194;BME280;8204;53.582;10.080;2023-08-20T01:06:44;100798.69;;;21.54;100.00
16194;BME280;8204;53.582;10.080;2023-08-20T01:09:48;100796.66;;;21.50;100.00
16194;BME280;8204;53.582;10.080;2023-08-20T01:12:16;100806.97;;;21.46;100.00
16194;BME280;8204;53.582;10.080;2023-08-20T01:14:42;100823.19;;;21.45;100.00
16194;BME280;8204;53.582;10.080;2023-08-20T01:17:07;100849.50;;;21.41;100.00
16194;BME280;8204;53.582;10.080;2023-08-20T01:19:33;100842.78;;;21.39;100.00
16194;BME280;8204;53.582;10.080;2023-08-20T01:24:47;100860.47;;;21.33;100.00
16194;BME280;8204;53.582;10.080;2023-08-20T01:30:14;100891.38;;;21.23;100.00
16194;BME280;8204;53.582;10.080;2023-08-20T01:32:41;100892.63;;;21.21;100.00
16194;BME280;8204;53.582;10.080;2023-08-20T01:35:12;100903.75;;;21.18;100.00
16194;BME280;8204;53.582;10.080;2023-08-20T01:37:39;100904.19;;;21.15;100.00
16194;BME280;8204;53.582;10.080;2023-08-20T01:40:06;100900.34;;;21.11;100.00
16194;BME280;8204;53.582;10.080;2023-08-20T01:42:33;100900.78;;;21.08;100.00
16194;BME280;8204;53.582;10.080;2023-08-20T01:44:58;100915.59;;;21.04;100.00
16194;BME280;8204;53.582;10.080;2023-08-20T01:47:24;100923.22;;;21.00;100.00
16194;BME280;8204;53.582;10.080;2023-08-20T01:49:49;100902.31;;;20.97;100.00
16194;BME280;8204;53.582;10.080;2023-08-20T01:52:15;100900.34;;;20.93;100.00
16194;BME280;8204;53.582;10.080;2023-08-20T01:54:40;100922.09;;;20.90;100.00
16194;BME280;8204;53.582;10.080;2023-08-20T01:57:06;100943.84;;;20.87;100.00
16194;BME280;8204;53.582;10.080;2023-08-20T01:59:31;100938.97;;;20.84;100.00
16194;BME280;8204;53.582;10.080;2023-08-20T02:01:56;100928.72;;;20.81;100.00
16194;BME280;8204;53.582;10.080;2023-08-20T02:04:23;100907.28;;;20.76;100.00
16194;BME280;8204;53.582;10.080;2023-08-20T02:06:49;100892.53;;;20.73;100.00
16194;BME280;8204;53.582;10.080;2023-08-20T02:09:14;100898.50;;;20.69;100.00
16194;BME280;8204;53.582;10.080;2023-08-20T02:11:40;100909.59;;;20.66;100.00
16194;BME280;8204;53.582;10.080;2023-08-20T02:14:05;100915.34;;;20.63;100.00
16194;BME280;8204;53.582;10.080;2023-08-20T02:16:30;100932.59;;;20.60;100.00
16194;BME280;8204;53.582;10.080;2023-08-20T02:18:56;100918.28;;;20.55;100.00
16194;BME280;8204;53.582;10.080;2023-08-20T02:21:21;100919.78;;;20.51;100.00
16194;BME280;8204;53.582;10.080;2023-08-20T02:23:46;100951.56;;;20.46;100.00
16194;BME280;8204;53.582;10.080;2023-08-20T02:26:12;100947.50;;;20.44;100.00
16194;BME280;8204;53.582;10.080;2023-08-20T02:28:37;100949.97;;;20.39;100.00
16194;BME280;8204;53.582;10.080;2023-08-20T02:31:05;100962.09;;;20.35;100.00
16194;BME280;8204;53.582;10.080;2023-08-20T02:33:30;100967.84;;;20.32;100.00
16194;BME280;8204;53.582;10.080;2023-08-20T02:36:03;100966.41;;;20.29;100.00
16194;BME280;8204;53.582;10.080;2023-08-20T02:38:29;100962.56;;;20.25;100.00
16194;BME280;8204;53.582;10.080;2023-08-20T02:40:55;100935.34;;;20.23;100.00
16194;BME280;8204;53.582;10.080;2023-08-20T02:43:20;100901.41;;;20.19;100.00
16194;BME280;8204;53.582;10.080;2023-08-20T02:45:46;100883.81;;;20.18;100.00
16194;BME280;8204;53.582;10.080;2023-08-20T02:48:13;100913.13;;;20.11;100.00
16194;BME280;8204;53.582;10.080;2023-08-20T02:50:38;100923.16;;;20.09;100.00
16194;BME280;8204;53.582;10.080;2023-08-20T02:53:04;100911.94;;;20.07;100.00
16194;BME280;8204;53.582;10.080;2023-08-20T02:55:31;100886.78;;;20.03;100.00
16194;BME280;8204;53.582;10.080;2023-08-20T02:57:56;100895.22;;;20.00;100.00
16194;BME280;8204;53.582;10.080;2023-08-20T03:00:21;100906.03;;;19.99;100.00
16194;BME280;8204;53.582;10.080;2023-08-20T03:02:47;100917.13;;;19.96;100.00
16194;BME280;8204;53.582;10.080;2023-08-20T03:05:12;100925.34;;;19.94;100.00
16194;BME280;8204;53.582;10.080;2023-08-20T03:07:38;100925.72;;;19.91;100.00
16194;BME280;8204;53.582;10.080;2023-08-20T03:10:04;100942.13;;;19.88;100.00
16194;BME280;8204;53.582;10.080;2023-08-20T03:12:29;100953.97;;;19.86;100.00
16194;BME280;8204;53.582;10.080;2023-08-20T03:14:55;100931.50;;;19.82;100.00
16194;BME280;8204;53.582;10.080;2023-08-20T03:17:21;100947.69;;;19.80;100.00
16194;BME280;8204;53.582;10.080;2023-08-20T03:19:57;100967.72;;;19.77;100.00
16194;BME280;8204;53.582;10.080;2023-08-20T03:22:23;100970.84;;;19.74;100.00
16194;BME280;8204;53.582;10.080;2023-08-20T03:24:49;100977.41;;;19.71;100.00
16194;BME280;8204;53.582;10.080;2023-08-20T03:27:15;100983.97;;;19.69;100.00
16194;BME280;8204;53.582;10.080;2023-08-20T03:29:41;100972.09;;;19.65;100.00
16194;BME280;8204;53.582;10.080;2023-08-20T03:32:06;100968.81;;;19.63;100.00
16194;BME280;8204;53.582;10.080;2023-08-20T03:34:32;100962.31;;;19.59;100.00
16194;BME280;8204;53.582;10.080;2023-08-20T03:36:57;100971.75;;;19.55;100.00
16194;BME280;8204;53.582;10.080;2023-08-20T03:39:22;100981.13;;;19.51;100.00
16194;BME280;8204;53.582;10.080;2023-08-20T03:41:50;100977.91;;;19.49;100.00
16194;BME280;8204;53.582;10.080;2023-08-20T03:44:16;100958.69;;;19.47;100.00
16194;BME280;8204;53.582;10.080;2023-08-20T03:46:42;100947.44;;;19.45;100.00
16194;BME280;8204;53.582;10.080;2023-08-20T03:49:07;100948.66;;;19.42;100.00
16194;BME280;8204;53.582;10.080;2023-08-20T03:51:32;100931.31;;;19.40;100.00
16194;BME280;8204;53.582;10.080;2023-08-20T03:53:58;100951.38;;;19.36;100.00
16194;BME280;8204;53.582;10.080;2023-08-20T03:56:24;100964.03;;;19.34;100.00
16194;BME280;8204;53.582;10.080;2023-08-20T03:58:50;100971.41;;;19.32;100.00
16194;BME280;8204;53.582;10.080;2023-08-20T04:01:16;100977.94;;;19.29;100.00
16194;BME280;8204;53.582;10.080;2023-08-20T04:03:42;100990.63;;;19.27;100.00
16194;BME280;8204;53.582;10.080;2023-08-20T04:06:07;100975.91;;;19.25;100.00
16194;BME280;8204;53.582;10.080;2023-08-20T04:08:33;100972.22;;;19.26;100.00
16194;BME280;8204;53.582;10.080;2023-08-20T04:10:58;100963.63;;;19.24;100.00
16194;BME280;8204;53.582;10.080;2023-08-20T04:13:24;100961.63;;;19.19;100.00
16194;BME280;8204;53.582;10.080;2023-08-20T04:15:49;100989.41;;;19.17;100.00
16194;BME280;8204;53.582;10.080;2023-08-20T04:18:15;100973.69;;;19.15;100.00
16194;BME280;8204;53.582;10.080;2023-08-20T04:20:40;100969.38;;;19.14;100.00
16194;BME280;8204;53.582;10.080;2023-08-20T04:23:06;100961.03;;;19.11;100.00
16194;BME280;8204;53.582;10.080;2023-08-20T04:25:32;100972.47;;;19.11;100.00
16194;BME280;8204;53.582;10.080;2023-08-20T04:27:57;100958.38;;;19.11;100.00
16194;BME280;8204;53.582;10.080;2023-08-20T04:30:23;100958.75;;;19.08;100.00
16194;BME280;8204;53.582;10.080;2023-08-20T04:32:49;100946.50;;;19.07;100.00
16194;BME280;8204;53.582;10.080;2023-08-20T04:35:14;100943.22;;;19.05;100.00
16194;BME280;8204;53.582;10.080;2023-08-20T04:37:39;100943.22;;;19.05;100.00
16194;BME280;8204;53.582;10.080;2023-08-20T04:40:06;100925.66;;;19.04;100.00
16194;BME280;8204;53.582;10.080;2023-08-20T04:42:33;100946.09;;;19.03;100.00
16194;BME280;8204;53.582;10.080;2023-08-20T04:44:59;100926.69;;;19.03;100.00
16194;BME280;8204;53.582;10.080;2023-08-20T04:47:24;100929.34;;;19.03;100.00
16194;BME280;8204;53.582;10.080;2023-08-20T04:49:50;100921.38;;;19.03;100.00
16194;BME280;8204;53.582;10.080;2023-08-20T04:52:15;100918.72;;;19.03;100.00
16194;BME280;8204;53.582;10.080;2023-08-20T04:54:41;100900.94;;;19.03;100.00
16194;BME280;8204;53.582;10.080;2023-08-20T04:57:06;100899.31;;;19.02;100.00
16194;BME280;8204;53.582;10.080;2023-08-20T04:59:32;100886.88;;;19.03;100.00
16194;BME280;8204;53.582;10.080;2023-08-20T05:01:57;100870.47;;;19.06;100.00
16194;BME280;8204;53.582;10.080;2023-08-20T05:04:23;100861.72;;;19.05;100.00
16194;BME280;8204;53.582;10.080;2023-08-20T05:06:49;100877.44;;;19.07;100.00
16194;BME280;8204;53.582;10.080;2023-08-20T05:09:14;100878.09;;;19.09;100.00
16194;BME280;8204;53.582;10.080;2023-08-20T05:11:41;100852.72;;;19.13;100.00
16194;BME280;8204;53.582;10.080;2023-08-20T05:14:06;100825.75;;;19.16;100.00
16194;BME280;8204;53.582;10.080;2023-08-20T05:16:31;100804.03;;;19.19;100.00
16194;BME280;8204;53.582;10.080;2023-08-20T05:18:57;100793.00;;;19.22;100.00
16194;BME280;8204;53.582;10.080;2023-08-20T05:21:23;100784.59;;;19.25;100.00
16194;BME280;8204;53.582;10.080;2023-08-20T05:23:49;100755.53;;;19.30;100.00
16194;BME280;8204;53.582;10.080;2023-08-20T05:26:15;100705.00;;;19.36;100.00
16194;BME280;8204;53.582;10.080;2023-08-20T05:28:41;100654.91;;;19.40;100.00
16194;BME280;8204;53.582;10.080;2023-08-20T05:31:06;100614.63;;;19.43;100.00
16194;BME280;8204;53.582;10.080;2023-08-20T05:33:32;100572.25;;;19.48;100.00
16194;BME280;8204;53.582;10.080;2023-08-20T05:35:59;100521.88;;;19.53;100.00
16194;BME280;8204;53.582;10.080;2023-08-20T05:38:24;100482.16;;;19.58;100.00
16194;BME280;8204;53.582;10.080;2023-08-20T05:40:50;100453.03;;;19.63;100.00
16194;BME280;8204;53.582;10.080;2023-08-20T05:43:16;100434.59;;;19.68;100.00
16194;BME280;8204;53.582;10.080;2023-08-20T05:45:42;100417.75;;;19.74;100.00
16194;BME280;8204;53.582;10.080;2023-08-20T05:48:08;100417.88;;;19.78;100.00
16194;BME280;8204;53.582;10.080;2023-08-20T05:50:34;100448.28;;;19.82;100.00
16194;BME280;8204;53.582;10.080;2023-08-20T05:53:00;100492.03;;;19.86;100.00
16194;BME280;8204;53.582;10.080;2023-08-20T05:55:26;100523.72;;;19.88;100.00
16194;BME280;8204;53.582;10.080;2023-08-20T05:57:51;100557.47;;;19.87;100.00
16194;BME280;8204;53.582;10.080;2023-08-20T06:00:16;100580.97;;;19.90;100.00
16194;BME280;8204;53.582;10.080;2023-08-20T06:02:43;100608.59;;;19.89;100.00
16194;BME280;8204;53.582;10.080;2023-08-20T06:05:09;100605.94;;;19.89;100.00
16194;BME280;8204;53.582;10.080;2023-08-20T06:07:34;100622.94;;;19.88;100.00
16194;BME280;8204;53.582;10.080;2023-08-20T06:09:59;100619.69;;;19.86;100.00
16194;BME280;8204;53.582;10.080;2023-08-20T06:12:25;100627.66;;;19.86;100.00
16194;BME280;8204;53.582;10.080;2023-08-20T06:14:50;100617.03;;;19.86;100.00
16194;BME280;8204;53.582;10.080;2023-08-20T06:17:16;100615.41;;;19.85;100.00
16194;BME280;8204;53.582;10.080;2023-08-20T06:19:42;100609.03;;;19.86;100.00
16194;BME280;8204;53.582;10.080;2023-08-20T06:22:07;100612.50;;;19.87;100.00
16194;BME280;8204;53.582;10.080;2023-08-20T06:24:33;100610.88;;;19.86;100.00
16194;BME280;8204;53.582;10.080;2023-08-20T06:26:59;100619.69;;;19.86;100.00
16194;BME280;8204;53.582;10.080;2023-08-20T06:29:24;100618.06;;;19.85;100.00
16194;BME280;8204;53.582;10.080;2023-08-20T06:31:50;100623.38;;;19.85;100.00
16194;BME280;8204;53.582;10.080;2023-08-20T06:34:16;100613.53;;;19.86;100.00
16194;BME280;8204;53.582;10.080;2023-08-20T06:36:42;100600.03;;;19.87;100.00
16194;BME280;8204;53.582;10.080;2023-08-20T06:39:07;100597.94;;;19.89;100.00
16194;BME280;8204;53.582;10.080;2023-08-20T06:41:34;100595.88;;;19.91;100.00
16194;BME280;8204;53.582;10.080;2023-08-20T06:43:59;100593.00;;;19.93;100.00
16194;BME280;8204;53.582;10.080;2023-08-20T06:46:24;100585.41;;;19.96;100.00
16194;BME280;8204;53.582;10.080;2023-08-20T06:48:50;100585.78;;;20.00;100.00
16194;BME280;8204;53.582;10.080;2023-08-20T06:51:19;100586.38;;;20.02;100.00
16194;BME280;8204;53.582;10.080;2023-08-20T06:53:45;100617.84;;;20.05;100.00
16194;BME280;8204;53.582;10.080;2023-08-20T06:56:10;100618.22;;;20.08;100.00
16194;BME280;8204;53.582;10.080;2023-08-20T06:58:40;100613.25;;;20.12;100.00
16194;BME280;8204;53.582;10.080;2023-08-20T07:01:06;100617.91;;;20.16;100.00
16194;BME280;8204;53.582;10.080;2023-08-20T07:03:44;100621.78;;;20.20;100.00
16194;BME280;8204;53.582;10.080;2023-08-20T07:06:10;100651.06;;;20.20;100.00
16194;BME280;8204;53.582;10.080;2023-08-20T07:08:37;100669.81;;;20.25;100.00
16194;BME280;8204;53.582;10.080;2023-08-20T07:11:05;100674.13;;;20.26;100.00
16194;BME280;8204;53.582;10.080;2023-08-20T07:13:30;100664.63;;;20.30;100.00
16194;BME280;8204;53.582;10.080;2023-08-20T07:15:56;100639.22;;;20.34;100.00
16194;BME280;8204;53.582;10.080;2023-08-20T07:18:21;100630.53;;;20.39;100.00
16194;BME280;8204;53.582;10.080;2023-08-20T07:20:47;100613.66;;;20.45;100.00
16194;BME280;8204;53.582;10.080;2023-08-20T07:23:12;100597.63;;;20.51;100.00
16194;BME280;8204;53.582;10.080;2023-08-20T07:25:39;100593.00;;;20.58;100.00
16194;BME280;8204;53.582;10.080;2023-08-20T07:28:06;100623.25;;;20.63;100.00
16194;BME280;8204;53.582;10.080;2023-08-20T07:30:32;100655.13;;;20.70;100.00
16194;BME280;8204;53.582;10.080;2023-08-20T07:32:57;100648.91;;;20.76;100.00
16194;BME280;8204;53.582;10.080;2023-08-20T07:35:23;100689.47;;;20.78;100.00
16194;BME280;8204;53.582;10.080;2023-08-20T07:37:49;100724.22;;;20.83;100.00
16194;BME280;8204;53.582;10.080;2023-08-20T07:40:14;100752.03;;;20.87;100.00
16194;BME280;8204;53.582;10.080;2023-08-20T07:42:40;100765.50;;;20.92;100.00
16194;BME280;8204;53.582;10.080;2023-08-20T07:45:06;100764.00;;;20.96;100.00
16194;BME280;8204;53.582;10.080;2023-08-20T07:47:33;100779.31;;;21.00;100.00
16194;BME280;8204;53.582;10.080;2023-08-20T07:49:58;100802.66;;;21.05;100.00
16194;BME280;8204;53.582;10.080;2023-08-20T07:52:24;100817.13;;;21.09;100.00
16194;BME280;8204;53.582;10.080;2023-08-20T07:54:49;100803.94;;;21.14;100.00
16194;BME280;8204;53.582;10.080;2023-08-20T07:57:14;100817.63;;;21.17;100.00
16194;BME280;8204;53.582;10.080;2023-08-20T07:59:40;100823.31;;;21.21;100.00
16194;BME280;8204;53.582;10.080;2023-08-20T08:02:06;100822.88;;;21.24;100.00
16194;BME280;8204;53.582;10.080;2023-08-20T08:04:33;100832.88;;;21.28;100.00
16194;BME280;8204;53.582;10.080;2023-08-20T08:06:58;100832.41;;;21.31;100.00
16194;BME280;8204;53.582;10.080;2023-08-20T08:09:29;100834.19;;;21.37;100.00
16194;BME280;8204;53.582;10.080;2023-08-20T08:11:55;100835.38;;;21.41;100.00
16194;BME280;8204;53.582;10.080;2023-08-20T08:14:21;100862.97;;;21.46;100.00
16194;BME280;8204;53.582;10.080;2023-08-20T08:16:47;100879.13;;;21.51;100.00
16194;BME280;8204;53.582;10.080;2023-08-20T08:19:13;100902.47;;;21.56;100.00
16194;BME280;8204;53.582;10.080;2023-08-20T08:21:38;100922.09;;;21.61;100.00
16194;BME280;8204;53.582;10.080;2023-08-20T08:24:04;100936.59;;;21.65;100.00
16194;BME280;8204;53.582;10.080;2023-08-20T08:26:30;100914.59;;;21.70;100.00
16194;BME280;8204;53.582;10.080;2023-08-20T08:28:56;100919.84;;;21.76;100.00
16194;BME280;8204;53.582;10.080;2023-08-20T08:31:22;100974.38;;;21.80;100.00
16194;BME280;8204;53.582;10.080;2023-08-20T08:33:48;101012.69;;;21.86;100.00
16194;BME280;8204;53.582;10.080;2023-08-20T08:36:13;101033.94;;;21.92;100.00
16194;BME280;8204;53.582;10.080;2023-08-20T08:38:41;101067.97;;;21.97;100.00
16194;BME280;8204;53.582;10.080;2023-08-20T08:41:10;101057.22;;;22.03;100.00
16194;BME280;8204;53.582;10.080;2023-08-20T08:43:38;101068.03;;;22.08;100.00
16194;BME280;8204;53.582;10.080;2023-08-20T08:46:11;101165.91;;;22.14;100.00
16194;BME280;8204;53.582;10.080;2023-08-20T08:48:37;101213.31;;;22.18;100.00
16194;BME280;8204;53.582;10.080;2023-08-20T08:51:05;101255.38;;;22.23;100.00
16194;BME280;8204;53.582;10.080;2023-08-20T08:53:32;101278.53;;;22.29;100.00
16194;BME280;8204;53.582;10.080;2023-08-20T08:55:58;101275.56;;;22.37;100.00
16194;BME280;8204;53.582;10.080;2023-08-20T08:58:24;101288.84;;;22.43;100.00
16194;BME280;8204;53.582;10.080;2023-08-20T09:00:49;101337.91;;;22.49;100.00
16194;BME280;8204;53.582;10.080;2023-08-20T09:03:15;101346.69;;;22.56;100.00
16194;BME280;8204;53.582;10.080;2023-08-20T09:08:26;101381.28;;;22.69;100.00
16194;BME280;8204;53.582;10.080;2023-08-20T09:10:55;101410.38;;;22.77;100.00
16194;BME280;8204;53.582;10.080;2023-08-20T09:13:33;101410.53;;;22.81;100.00
16194;BME280;8204;53.582;10.080;2023-08-20T09:15:59;101400.00;;;22.86;100.00
16194;BME280;8204;53.582;10.080;2023-08-20T09:18:24;101389.22;;;22.93;100.00
16194;BME280;8204;53.582;10.080;2023-08-20T09:20:50;101437.72;;;22.96;100.00
16194;BME280;8204;53.582;10.080;2023-08-20T09:23:16;101467.72;;;22.98;100.00
16194;BME280;8204;53.582;10.080;2023-08-20T09:25:42;101486.63;;;23.03;100.00
16194;BME280;8204;53.582;10.080;2023-08-20T09:28:08;101501.19;;;23.07;100.00
16194;BME280;8204;53.582;10.080;2023-08-20T09:30:34;101513.06;;;23.11;100.00
16194;BME280;8204;53.582;10.080;2023-08-20T09:33:12;101492.06;;;23.15;100.00
16194;BME280;8204;53.582;10.080;2023-08-20T09:35:49;101473.47;;;23.20;100.00
16194;BME280;8204;53.582;10.080;2023-08-20T09:38:19;101454.09;;;23.24;100.00
16194;BME280;8204;53.582;10.080;2023-08-20T09:40:46;101444.38;;;23.30;100.00
16194;BME280;8204;53.582;10.080;2023-08-20T09:43:15;101450.91;;;23.34;100.00
16194;BME280;8204;53.582;10.080;2023-08-20T09:45:42;101445.47;;;23.40;100.00
16194;BME280;8204;53.582;10.080;2023-08-20T09:48:09;101466.78;;;23.47;100.00
16194;BME280;8204;53.582;10.080;2023-08-20T09:50:36;101494.28;;;23.53;100.00
16194;BME280;8204;53.582;10.080;2023-08-20T09:53:17;101426.25;;;23.61;100.00
16194;BME280;8204;53.582;10.080;2023-08-20T09:55:47;101469.22;;;23.66;100.00
16194;BME280;8204;53.582;10.080;2023-08-20T09:58:14;101451.44;;;23.71;100.00
16194;BME280;8204;53.582;10.080;2023-08-20T10:00:42;101447.50;;;23.74;100.00
16194;BME280;8204;53.582;10.080;2023-08-20T10:03:07;101461.63;;;23.81;100.00
16194;BME280;8204;53.582;10.080;2023-08-20T10:05:33;101451.06;;;23.86;100.00
16194;BME280;8204;53.582;10.080;2023-08-20T10:07:58;101428.28;;;23.95;100.00
16194;BME280;8204;53.582;10.080;2023-08-20T10:10:26;101494.28;;;24.01;100.00
16194;BME280;8204;53.582;10.080;2023-08-20T10:12:52;101514.81;;;24.07;100.00
16194;BME280;8204;53.582;10.080;2023-08-20T10:15:18;101517.03;;;24.10;100.00
16194;BME280;8204;53.582;10.080;2023-08-20T10:17:45;101507.50;;;24.14;100.00
16194;BME280;8204;53.582;10.080;2023-08-20T10:20:13;101466.63;;;24.18;100.00
16194;BME280;8204;53.582;10.080;2023-08-20T10:22:44;101492.28;;;24.26;100.00
16194;BME280;8204;53.582;10.080;2023-08-20T10:25:24;101524.56;;;24.30;100.00
16194;BME280;8204;53.582;10.080;2023-08-20T10:27:50;101524.69;;;24.35;100.00
16194;BME280;8204;53.582;10.080;2023-08-20T10:30:18;101536.38;;;24.41;100.00
16194;BME280;8204;53.582;10.080;2023-08-20T10:32:50;101541.06;;;24.45;100.00
16194;BME280;8204;53.582;10.080;2023-08-20T10:35:17;101529.44;;;24.51;100.00
16194;BME280;8204;53.582;10.080;2023-08-20T10:38:11;101576.16;;;24.55;100.00
16194;BME280;8204;53.582;10.080;2023-08-20T10:40:51;101541.00;;;24.63;100.00
16194;BME280;8204;53.582;10.080;2023-08-20T10:46:22;101557.69;;;24.77;100.00
16194;BME280;8204;53.582;10.080;2023-08-20T10:48:51;101559.44;;;24.83;100.00
16194;BME280;8204;53.582;10.080;2023-08-20T10:51:24;101588.84;;;24.89;100.00
16194;BME280;8204;53.582;10.080;2023-08-20T10:56:42;101651.34;;;25.01;100.00
16194;BME280;8204;53.582;10.080;2023-08-20T10:59:09;101666.53;;;25.07;100.00
16194;BME280;8204;53.582;10.080;2023-08-20T11:01:35;101657.59;;;25.13;100.00
16194;BME280;8204;53.582;10.080;2023-08-20T11:04:02;101652.50;;;25.23;100.00
16194;BME280;8204;53.582;10.080;2023-08-20T11:06:31;101695.06;;;25.31;100.00
16194;BME280;8204;53.582;10.080;2023-08-20T11:09:01;101689.13;;;25.40;100.00
16194;BME280;8204;53.582;10.080;2023-08-20T11:11:29;101682.13;;;25.51;100.00
16194;BME280;8204;53.582;10.080;2023-08-20T11:13:55;101705.25;;;25.63;100.00
16194;BME280;8204;53.582;10.080;2023-08-20T11:16:21;101724.91;;;25.75;100.00
16194;BME280;8204;53.582;10.080;2023-08-20T11:18:46;101727.34;;;25.88;100.00
16194;BME280;8204;53.582;10.080;2023-08-20T11:21:12;101732.22;;;26.02;100.00
16194;BME280;8204;53.582;10.080;2023-08-20T11:23:39;101728.25;;;26.16;100.00
16194;BME280;8204;53.582;10.080;2023-08-20T11:26:07;101766.66;;;26.28;100.00
16194;BME280;8204;53.582;10.080;2023-08-20T11:28:32;101795.28;;;26.34;100.00
16194;BME280;8204;53.582;10.080;2023-08-20T11:30:58;101809.09;;;26.38;100.00
16194;BME280;8204;53.582;10.080;2023-08-20T11:33:23;101814.13;;;26.46;100.00
16194;BME280;8204;53.582;10.080;2023-08-20T11:35:51;101836.00;;;26.49;100.00
16194;BME280;8204;53.582;10.080;2023-08-20T11:38:16;101847.34;;;26.51;100.00
16194;BME280;8204;53.582;10.080;2023-08-20T11:40:42;101840.41;;;26.55;100.00
16194;BME280;8204;53.582;10.080;2023-08-20T11:43:08;101837.28;;;26.58;100.00
16194;BME280;8204;53.582;10.080;2023-08-20T11:45:44;101844.84;;;26.61;100.00
16194;BME280;8204;53.582;10.080;2023-08-20T11:48:09;101855.59;;;26.61;100.00
16194;BME280;8204;53.582;10.080;2023-08-20T11:50:35;101841.94;;;26.62;100.00
16194;BME280;8204;53.582;10.080;2023-08-20T11:53:02;101840.06;;;26.63;100.00
16194;BME280;8204;53.582;10.080;2023-08-20T11:55:29;101834.22;;;26.66;100.00
16194;BME280;8204;53.582;10.080;2023-08-20T11:57:55;101834.91;;;26.73;100.00
16194;BME280;8204;53.582;10.080;2023-08-20T12:00:29;101833.00;;;26.85;100.00
16194;BME280;8204;53.582;10.080;2023-08-20T12:02:55;101839.41;;;26.95;100.00
16194;BME280;8204;53.582;10.080;2023-08-20T12:05:30;101843.88;;;27.01;100.00
16194;BME280;8204;53.582;10.080;2023-08-20T12:07:57;101837.28;;;27.09;100.00
16194;BME280;8204;53.582;10.080;2023-08-20T12:10:23;101840.06;;;27.14;100.00
16194;BME280;8204;53.582;10.080;2023-08-20T12:12:49;101838.53;;;27.18;100.00
16194;BME280;8204;53.582;10.080;2023-08-20T12:15:15;101852.00;;;27.18;100.00
16194;BME280;8204;53.582;10.080;2023-08-20T12:17:41;101844.97;;;27.17;100.00
16194;BME280;8204;53.582;10.080;2023-08-20T12:20:07;101852.47;;;27.15;100.00
16194;BME280;8204;53.582;10.080;2023-08-20T12:22:38;101835.84;;;27.18;100.00
16194;BME280;8204;53.582;10.080;2023-08-20T12:25:05;101840.75;;;27.21;100.00
16194;BME280;8204;53.582;10.080;2023-08-20T12:27:31;101841.91;;;27.25;100.00
16194;BME280;8204;53.582;10.080;2023-08-20T12:29:57;101858.63;;;27.27;100.00
16194;BME280;8204;53.582;10.080;2023-08-20T12:32:23;101855.38;;;27.25;100.00
16194;BME280;8204;53.582;10.080;2023-08-20T12:34:49;101856.03;;;27.32;100.00
16194;BME280;8204;53.582;10.080;2023-08-20T12:37:14;101857.03;;;27.42;100.00
16194;BME280;8204;53.582;10.080;2023-08-20T12:39:39;101852.16;;;27.55;100.00
16194;BME280;8204;53.582;10.080;2023-08-20T12:42:06;101841.91;;;27.69;100.00
16194;BME280;8204;53.582;10.080;2023-08-20T12:44:32;101854.00;;;27.83;100.00
16194;BME280;8204;53.582;10.080;2023-08-20T12:46:57;101848.56;;;27.94;100.00
16194;BME280;8204;53.582;10.080;2023-08-20T12:49:23;101851.66;;;28.03;100.00
16194;BME280;8204;53.582;10.080;2023-08-20T12:51:48;101851.81;;;28.12;100.00
16194;BME280;8204;53.582;10.080;2023-08-20T12:54:13;101857.72;;;28.26;100.00